Airfield :
LOGIN :

Register | Disclaimer

   EN    FR    IT 

 










Legend :    VFR   Marginal VFR   IFR   Intensive IFR   Very Intensive IFR
Visi :
Ceiling :
>= 8 km
>= 3000ft
5 to 8 km
1000 to 3000 ft
1500m to 5 km
500 to 1000 ft
800 to 1500m
200 to 500 ft
< 800m
< 200 ft
Symbols :   Thunderstorms  Fog  Heavy snow  Heavy precipitations  Wind > 20 kt
SIGMETs :     Misc.  Thunderstorms  Icing  Turbulence  Mountain Waves  Volcanic Ashes







- Airport Elevation : 230 ft


ETHB - Buckeburg Army

CURRENT METAR :
  • 172201Z 29017KT 8000 -SHSN BKN016CB BKN030 02/M01 Q1007 WHT

EXPIRED METARs :
  • 172120Z 28016KT 9999 -SHSN SCT016CB SCT037 02/M01 Q1006 BLU+
  • 172045Z 28014KT 9999 FEW016 BKN033 02/M01 Q1006 BLU
  • 172020Z 28013KT 9999 FEW012 BKN016 02/M00 Q1005 WHT
  • 171932Z 28014KT 9999 -SHGS BKN013 02/M00 Q1004 GRN
  • 171920Z 27014KT 9999 BKN015 02/M00 Q1004 WHT

TAF AMD TAF ETHB
Valid from the 17 at 15:00 until the 18 at 00:00 UTC


171629Z 1715/1724 26012KT 9999 NSW SCT012 BKN020
TEMPO 1715/1718 28015KT 1300 SHRASN SCT007 BKN012CB
TEMPO 1717/1721 23018KT 0500 SHSN BKN003 BKN010CB CANCEL 1700
No reported NOTAMs for that airfield.



MET'MAP, your aeronautical weather chart ! - Copyright ORBIFLY December 2007 - Disclaimer

ORBIFLY MET'MAP TEAM :

Programming & Development : Alexandra Zaïnal
Concept & Development : Baudouin d'Aumeries
Co-Development & Prog : Marc-Olivier Méhu
Technical & hardware support : Manuel Goepfert

Contact : metmap@orbifly.com




SOURCES & CREDITS :

   NOAA